createdAt,value
2019-02-05T00:02:06.485Z,3.54
2019-02-05T00:04:33.181Z,3.61
2019-02-05T00:07:00.359Z,3.74
2019-02-05T00:09:27.390Z,3.81
2019-02-05T00:11:54.130Z,3.72
2019-02-05T00:14:21.571Z,3.77
2019-02-05T00:16:48.660Z,3.89
2019-02-05T00:19:15.401Z,4.01
2019-02-05T00:21:42.266Z,4.16
2019-02-05T00:24:09.141Z,4.28
2019-02-05T00:26:35.861Z,4.32
2019-02-05T00:29:02.620Z,4.11
2019-02-05T00:31:31.814Z,4.01
2019-02-05T00:33:58.549Z,3.99
2019-02-05T00:36:25.494Z,3.94
2019-02-05T00:38:52.244Z,3.93
2019-02-05T00:41:21.245Z,3.97
2019-02-05T00:43:48.030Z,4.02
2019-02-05T00:46:14.752Z,3.99
2019-02-05T00:48:41.514Z,3.82
2019-02-05T00:51:08.246Z,3.64
2019-02-05T00:53:35.122Z,3.70
2019-02-05T00:56:01.921Z,3.70
2019-02-05T00:58:29.164Z,3.85
2019-02-05T01:00:55.946Z,3.85
2019-02-05T01:03:22.671Z,3.87
2019-02-05T01:05:49.420Z,3.96
2019-02-05T01:08:16.657Z,4.01
2019-02-05T01:10:43.379Z,4.08
2019-02-05T01:13:10.205Z,4.07
2019-02-05T01:15:37.078Z,4.06
2019-02-05T01:18:03.792Z,3.98
2019-02-05T01:20:31.026Z,3.87
2019-02-05T01:23:00.612Z,3.76
2019-02-05T01:25:28.886Z,3.57
2019-02-05T01:27:55.666Z,3.50
2019-02-05T01:30:24.085Z,3.65
2019-02-05T01:32:53.182Z,3.61
2019-02-05T01:35:19.951Z,3.61
2019-02-05T01:37:47.931Z,3.60
2019-02-05T01:40:16.462Z,3.61
2019-02-05T01:42:44.026Z,3.61
2019-02-05T01:45:13.729Z,3.56
2019-02-05T01:47:40.565Z,3.60
2019-02-05T01:50:07.724Z,3.39
2019-02-05T01:52:34.478Z,3.38
2019-02-05T01:55:01.303Z,3.45
2019-02-05T01:57:28.050Z,3.38
2019-02-05T01:59:55.917Z,3.45
2019-02-05T02:02:22.666Z,3.50
2019-02-05T02:04:49.406Z,3.48
2019-02-05T02:07:16.146Z,3.25
2019-02-05T02:09:42.953Z,3.21
2019-02-05T02:12:10.046Z,3.18
2019-02-05T02:14:36.820Z,3.25
2019-02-05T02:17:03.690Z,3.25
2019-02-05T02:19:30.940Z,3.31
2019-02-05T02:21:57.684Z,3.25
2019-02-05T02:24:24.402Z,2.92
2019-02-05T02:26:52.342Z,2.84
2019-02-05T02:29:22.452Z,2.83
2019-02-05T02:31:49.313Z,2.91
2019-02-05T02:34:16.023Z,2.92
2019-02-05T02:36:47.010Z,3.04
2019-02-05T02:39:13.749Z,3.10
2019-02-05T02:41:41.983Z,2.94
2019-02-05T02:44:08.727Z,2.85
2019-02-05T02:46:35.585Z,2.94
2019-02-05T02:49:02.482Z,2.89
2019-02-05T02:51:29.233Z,2.96
2019-02-05T02:53:56.686Z,3.04
2019-02-05T02:56:23.952Z,2.96
2019-02-05T02:58:51.690Z,2.92
2019-02-05T03:01:18.450Z,2.84
2019-02-05T03:03:45.331Z,2.86
2019-02-05T03:06:12.206Z,2.83
2019-02-05T03:08:39.379Z,2.77
2019-02-05T03:11:06.080Z,2.77
2019-02-05T03:13:33.299Z,2.76
2019-02-05T03:16:00.059Z,2.80
2019-02-05T03:18:26.827Z,2.63
2019-02-05T03:20:53.587Z,2.58
2019-02-05T03:23:20.728Z,2.39
2019-02-05T03:25:47.460Z,2.22
2019-02-05T03:28:14.201Z,2.33
2019-02-05T03:30:40.960Z,2.29
2019-02-05T03:33:07.684Z,2.39
2019-02-05T03:35:34.975Z,2.41
2019-02-05T03:38:03.846Z,2.30
2019-02-05T03:41:05.926Z,2.27
2019-02-05T03:43:36.875Z,2.34
2019-02-05T03:46:05.445Z,2.30
2019-02-05T03:48:32.985Z,2.03
2019-02-05T03:51:07.061Z,2.14
2019-02-05T03:53:35.428Z,2.25
2019-02-05T03:56:36.765Z,2.30
2019-02-05T03:59:32.839Z,2.53
2019-02-05T04:02:08.034Z,2.58
2019-02-05T04:05:37.853Z,2.37
2019-02-05T04:08:55.743Z,2.27
2019-02-05T04:12:02.884Z,2.37
2019-02-05T04:15:20.299Z,2.38
2019-02-05T04:18:13.601Z,2.32
2019-02-05T04:21:24.947Z,2.30
2019-02-05T04:24:48.665Z,2.46
2019-02-05T04:27:43.932Z,2.54
2019-02-05T04:30:31.469Z,2.51
2019-02-05T04:33:29.259Z,2.41
2019-02-05T04:36:19.729Z,2.50
2019-02-05T04:38:57.569Z,2.48
2019-02-05T04:42:05.720Z,2.24
2019-02-05T04:45:06.204Z,2.13
2019-02-05T04:48:27.353Z,2.08
2019-02-05T04:51:04.657Z,2.11
2019-02-05T04:54:22.996Z,2.14
2019-02-05T04:57:19.447Z,1.96
2019-02-05T05:00:33.455Z,1.94
2019-02-05T05:03:17.255Z,1.81
2019-02-05T05:06:19.740Z,1.81
2019-02-05T05:09:23.329Z,1.85
2019-02-05T05:11:50.045Z,1.88
2019-02-05T05:14:16.894Z,1.90
2019-02-05T05:16:46.241Z,1.97
2019-02-05T05:19:13.103Z,2.00
2019-02-05T05:21:39.842Z,1.99
2019-02-05T05:24:06.725Z,1.95
2019-02-05T05:26:34.098Z,1.87
2019-02-05T05:29:01.189Z,1.87
2019-02-05T05:31:28.081Z,1.81
2019-02-05T05:33:54.798Z,1.84
2019-02-05T05:36:21.540Z,1.92
2019-02-05T05:38:48.338Z,1.94
2019-02-05T05:41:15.659Z,1.89
2019-02-05T05:43:42.456Z,1.84
2019-02-05T05:46:09.279Z,1.62
2019-02-05T05:48:36.028Z,1.75
2019-02-05T05:51:02.808Z,1.78
2019-02-05T05:53:29.528Z,1.39
2019-02-05T05:55:56.360Z,1.50
2019-02-05T05:58:23.636Z,1.39
2019-02-05T06:00:50.672Z,1.35
2019-02-05T06:03:17.526Z,1.46
2019-02-05T06:05:44.279Z,1.54
2019-02-05T06:08:11.448Z,1.59
2019-02-05T06:10:38.376Z,1.56
2019-02-05T06:13:08.996Z,1.56
2019-02-05T06:15:36.179Z,1.53
2019-02-05T06:18:03.012Z,1.44
2019-02-05T06:20:32.139Z,1.47
2019-02-05T06:22:58.984Z,1.53
2019-02-05T06:25:25.810Z,1.56
2019-02-05T06:27:53.320Z,1.54
2019-02-05T06:30:20.192Z,1.62
2019-02-05T06:32:47.030Z,1.60
2019-02-05T06:35:13.871Z,1.63
2019-02-05T06:37:40.763Z,1.76
2019-02-05T06:40:09.017Z,1.84
2019-02-05T06:42:38.277Z,1.90
2019-02-05T06:45:07.810Z,1.96
2019-02-05T06:47:34.834Z,1.91
2019-02-05T06:50:01.574Z,1.91
2019-02-05T06:52:28.420Z,1.81
2019-02-05T06:54:55.262Z,1.81
2019-02-05T06:57:24.254Z,1.79
2019-02-05T06:59:51.024Z,1.79
2019-02-05T07:02:18.362Z,1.77
2019-02-05T07:04:45.122Z,1.83
2019-02-05T07:07:11.886Z,1.85
2019-02-05T07:09:38.654Z,1.87
2019-02-05T07:12:05.520Z,1.96
2019-02-05T07:14:36.565Z,1.95
2019-02-05T07:17:03.658Z,1.90
2019-02-05T07:19:31.285Z,1.93
2019-02-05T07:21:58.197Z,1.84
2019-02-05T07:24:25.038Z,1.78
2019-02-05T07:26:57.570Z,1.77
2019-02-05T07:29:24.356Z,1.85
2019-02-05T07:31:51.286Z,1.83
2019-02-05T07:34:21.153Z,1.85
2019-02-05T07:36:46.996Z,1.75
2019-02-05T07:39:14.113Z,1.77
2019-02-05T07:41:40.834Z,1.80
2019-02-05T07:44:07.780Z,1.85
2019-02-05T07:46:34.639Z,1.74
2019-02-05T07:49:01.662Z,1.72
2019-02-05T07:51:29.201Z,1.68
2019-02-05T07:53:59.488Z,1.71
2019-02-05T07:56:26.390Z,1.88
2019-02-05T07:58:55.838Z,1.79
2019-02-05T08:01:22.602Z,1.78
2019-02-05T08:03:49.376Z,1.92
2019-02-05T08:06:19.274Z,1.95
2019-02-05T08:08:46.074Z,2.09
2019-02-05T08:11:12.824Z,2.08
2019-02-05T08:13:39.584Z,2.04
2019-02-05T08:16:06.622Z,2.37
2019-02-05T08:18:36.776Z,2.52
2019-02-05T08:21:04.409Z,2.39
2019-02-05T08:23:31.240Z,2.39
2019-02-05T08:25:58.256Z,2.48
2019-02-05T08:28:25.008Z,2.54
2019-02-05T08:30:53.890Z,2.64
2019-02-05T08:33:21.195Z,2.67
2019-02-05T08:35:48.104Z,2.81
2019-02-05T08:38:15.045Z,2.84
2019-02-05T08:40:42.436Z,2.93
2019-02-05T08:43:09.492Z,3.07
2019-02-05T08:45:36.523Z,3.18
2019-02-05T08:48:04.122Z,3.28
2019-02-05T08:50:31.119Z,3.34
2019-02-05T08:52:57.917Z,3.41
2019-02-05T08:55:24.686Z,3.45
2019-02-05T08:57:52.778Z,3.50
2019-02-05T09:00:21.949Z,3.54
2019-02-05T09:02:48.828Z,3.64
2019-02-05T09:05:15.769Z,3.73
2019-02-05T09:07:42.992Z,3.82
2019-02-05T09:10:13.957Z,3.83
2019-02-05T09:12:40.872Z,3.83
2019-02-05T09:15:12.952Z,3.86
2019-02-05T09:17:40.116Z,3.90
2019-02-05T09:20:09.621Z,4.02
2019-02-05T09:22:36.477Z,4.25
2019-02-05T09:25:04.161Z,4.40
2019-02-05T09:27:30.953Z,4.45
2019-02-05T09:30:00.236Z,4.54
2019-02-05T09:32:34.870Z,4.59
2019-02-05T09:34:56.702Z,4.79
2019-02-05T09:37:23.896Z,4.92
2019-02-05T09:39:50.797Z,4.94
2019-02-05T09:42:17.759Z,5.10
2019-02-05T09:44:44.634Z,5.31
2019-02-05T09:47:11.482Z,5.43
2019-02-05T09:49:38.321Z,5.48
2019-02-05T09:52:07.291Z,5.50
2019-02-05T09:54:34.370Z,5.53
2019-02-05T09:57:01.402Z,5.49
2019-02-05T09:59:28.837Z,5.42
2019-02-05T10:01:55.693Z,5.42
2019-02-05T10:04:23.166Z,5.61
2019-02-05T10:06:50.264Z,5.55
2019-02-05T10:09:17.267Z,5.36
2019-02-05T10:11:44.281Z,5.29
2019-02-05T10:14:11.106Z,5.59
2019-02-05T10:16:38.007Z,5.76
2019-02-05T10:19:04.851Z,5.86
2019-02-05T10:21:31.639Z,5.91
2019-02-05T10:23:58.415Z,6.03
2019-02-05T10:26:26.382Z,6.18
2019-02-05T10:28:54.972Z,6.07
2019-02-05T10:31:21.830Z,6.19
2019-02-05T10:33:55.368Z,6.27
2019-02-05T10:36:18.900Z,6.24
2019-02-05T10:38:46.085Z,6.21
2019-02-05T10:41:13.465Z,6.40
2019-02-05T10:43:41.633Z,6.38
2019-02-05T10:46:08.795Z,6.09
2019-02-05T10:48:38.615Z,6.24
2019-02-05T10:51:08.431Z,6.24
2019-02-05T10:53:38.291Z,6.28
2019-02-05T10:56:05.599Z,6.60
2019-02-05T10:58:32.915Z,6.71
2019-02-05T11:01:00.019Z,6.85
2019-02-05T11:03:27.253Z,7.00
2019-02-05T11:05:55.818Z,7.04
2019-02-05T11:08:26.025Z,7.04
2019-02-05T11:10:52.926Z,7.09
2019-02-05T11:13:19.881Z,7.16
2019-02-05T11:15:47.041Z,7.20
2019-02-05T11:18:13.909Z,7.30
2019-02-05T11:20:42.953Z,7.30
2019-02-05T11:23:09.827Z,7.47
2019-02-05T11:25:36.739Z,7.35
2019-02-05T11:28:03.703Z,7.35
2019-02-05T11:30:35.660Z,7.26
2019-02-05T11:33:02.475Z,7.35
2019-02-05T11:35:30.028Z,7.45
2019-02-05T11:37:57.118Z,7.79
2019-02-05T11:40:27.932Z,7.79
2019-02-05T11:42:54.825Z,7.87
2019-02-05T11:45:21.706Z,7.98
2019-02-05T11:47:48.835Z,7.93
2019-02-05T11:50:16.235Z,8.07
2019-02-05T11:52:43.965Z,8.17
2019-02-05T11:55:14.122Z,8.21
2019-02-05T11:57:40.983Z,8.14
2019-02-05T12:00:12.221Z,8.19
2019-02-05T12:02:39.100Z,8.25
2019-02-05T12:05:06.746Z,8.27
2019-02-05T12:07:33.648Z,8.30
2019-02-05T12:10:00.583Z,8.38
2019-02-05T12:12:27.593Z,8.43
2019-02-05T12:14:54.858Z,8.47
2019-02-05T12:17:23.309Z,8.65
2019-02-05T12:19:50.119Z,8.68
2019-02-05T12:22:17.408Z,8.70
2019-02-05T12:24:46.537Z,8.82
2019-02-05T12:27:13.318Z,8.82
2019-02-05T12:29:40.567Z,9.00
2019-02-05T12:32:09.344Z,9.02
2019-02-05T12:34:37.207Z,9.02
2019-02-05T12:37:04.159Z,9.18
2019-02-05T12:39:31.411Z,9.31
2019-02-05T12:41:58.478Z,9.33
2019-02-05T12:44:25.530Z,9.41
2019-02-05T12:46:52.635Z,9.48
2019-02-05T12:49:20.317Z,7.97
2019-02-05T12:51:47.658Z,8.86
2019-02-05T12:54:14.921Z,8.72
2019-02-05T12:56:44.014Z,8.83
2019-02-05T12:59:10.849Z,8.96
2019-02-05T13:01:37.947Z,9.01
2019-02-05T13:04:06.411Z,8.91
2019-02-05T13:06:33.304Z,8.80
2019-02-05T13:09:00.206Z,8.88
2019-02-05T13:11:27.657Z,8.83
2019-02-05T13:13:54.400Z,8.73
2019-02-05T13:16:21.215Z,8.77
2019-02-05T13:18:48.240Z,8.75
2019-02-05T13:21:15.244Z,8.94
2019-02-05T13:23:42.212Z,8.84
2019-02-05T13:26:09.406Z,8.83
2019-02-05T13:28:36.476Z,8.83
2019-02-05T13:31:08.282Z,9.13
2019-02-05T13:33:32.671Z,9.21
2019-02-05T13:35:59.448Z,9.26
2019-02-05T13:38:29.432Z,9.41
2019-02-05T13:40:56.502Z,9.57
2019-02-05T13:43:23.360Z,9.87
2019-02-05T13:45:50.801Z,9.97
2019-02-05T13:48:18.583Z,10.15
2019-02-05T13:50:45.493Z,9.92
2019-02-05T13:53:12.571Z,9.88
2019-02-05T13:55:41.445Z,9.75
2019-02-05T13:58:09.187Z,9.97
2019-02-05T14:00:42.881Z,9.88
2019-02-05T14:03:09.786Z,9.49
2019-02-05T14:05:36.894Z,9.56
2019-02-05T14:08:04.159Z,9.21
2019-02-05T14:10:31.163Z,9.31
2019-02-05T14:12:58.364Z,9.66
2019-02-05T14:15:31.339Z,9.89
2019-02-05T14:17:58.526Z,9.69
2019-02-05T14:20:25.736Z,9.46
2019-02-05T14:22:52.510Z,9.29
2019-02-05T14:25:19.402Z,9.26
2019-02-05T14:27:46.474Z,9.26
2019-02-05T14:30:20.470Z,9.22
2019-02-05T14:32:47.327Z,9.17
2019-02-05T14:35:14.106Z,9.13
2019-02-05T14:37:41.162Z,9.15
2019-02-05T14:40:11.315Z,9.20
2019-02-05T14:42:38.638Z,9.22
2019-02-05T14:45:07.322Z,9.26
2019-02-05T14:47:34.282Z,9.25
2019-02-05T14:50:01.530Z,9.26
2019-02-05T14:52:28.970Z,9.20
2019-02-05T14:54:55.730Z,9.15
2019-02-05T14:57:22.742Z,9.16
2019-02-05T14:59:49.461Z,9.04
2019-02-05T15:02:16.472Z,9.18
2019-02-05T15:04:44.810Z,9.47
2019-02-05T15:07:11.791Z,9.43
2019-02-05T15:09:38.516Z,9.29
2019-02-05T15:12:05.851Z,9.19
2019-02-05T15:14:37.425Z,9.21
2019-02-05T15:17:04.663Z,9.22
2019-02-05T15:19:32.623Z,9.12
2019-02-05T15:21:59.789Z,9.12
2019-02-05T15:24:37.110Z,9.28
2019-02-05T15:26:55.757Z,9.40
2019-02-05T15:29:22.657Z,9.31
2019-02-05T15:31:54.593Z,9.54
2019-02-05T15:34:28.916Z,9.67
2019-02-05T15:36:55.983Z,9.43
2019-02-05T15:39:25.021Z,9.54
2019-02-05T15:41:52.314Z,9.47
2019-02-05T15:44:19.159Z,9.54
2019-02-05T15:46:48.155Z,9.72
2019-02-05T15:49:15.189Z,9.80
2019-02-05T15:51:42.018Z,9.78
2019-02-05T15:54:08.886Z,9.50
2019-02-05T15:56:35.844Z,9.27
2019-02-05T15:59:02.708Z,9.33
2019-02-05T16:01:29.526Z,9.18
2019-02-05T16:03:59.805Z,9.02
2019-02-05T16:06:26.715Z,8.92
2019-02-05T16:08:54.182Z,8.91
2019-02-05T16:11:21.196Z,9.00
2019-02-05T16:13:47.957Z,9.11
2019-02-05T16:16:14.777Z,9.11
2019-02-05T16:18:42.233Z,9.09
2019-02-05T16:21:09.003Z,9.06
2019-02-05T16:23:35.820Z,9.04
2019-02-05T16:26:02.801Z,8.91
2019-02-05T16:28:29.685Z,8.88
2019-02-05T16:30:56.870Z,8.94
2019-02-05T16:33:23.625Z,8.97
2019-02-05T16:35:52.100Z,8.88
2019-02-05T16:38:19.180Z,8.94
2019-02-05T16:40:45.903Z,8.88
2019-02-05T16:43:12.833Z,8.88
2019-02-05T16:45:39.689Z,9.00
2019-02-05T16:48:06.643Z,9.05
2019-02-05T16:50:36.162Z,8.99
2019-02-05T16:53:03.645Z,8.97
2019-02-05T16:55:31.205Z,9.00
2019-02-05T16:57:58.855Z,8.99
2019-02-05T17:00:30.409Z,8.97
2019-02-05T17:02:58.409Z,8.97
2019-02-05T17:05:25.913Z,11.24
2019-02-05T17:07:52.635Z,13.30
2019-02-05T17:10:19.521Z,13.92
2019-02-05T17:12:46.461Z,14.12
2019-02-05T17:15:14.188Z,14.20
2019-02-05T17:17:40.969Z,14.41
2019-02-05T17:20:10.659Z,14.17
2019-02-05T17:22:39.659Z,12.60
2019-02-05T17:25:07.818Z,11.39
2019-02-05T17:27:34.623Z,10.76
2019-02-05T17:30:01.747Z,10.21
2019-02-05T17:32:39.747Z,9.85
2019-02-05T17:34:57.424Z,9.60
2019-02-05T17:37:24.464Z,9.44
2019-02-05T17:39:51.258Z,9.21
2019-02-05T17:42:18.054Z,9.05
2019-02-05T17:44:45.900Z,8.83
2019-02-05T17:47:13.688Z,8.81
2019-02-05T17:49:40.417Z,8.69
2019-02-05T17:52:07.253Z,8.57
2019-02-05T17:54:34.221Z,8.46
2019-02-05T17:57:01.628Z,8.37
2019-02-05T17:59:28.478Z,8.19
2019-02-05T18:01:55.348Z,7.93
2019-02-05T18:04:22.269Z,7.84
2019-02-05T18:06:52.197Z,7.80
2019-02-05T18:09:19.079Z,7.78
2019-02-05T18:11:45.854Z,7.75
2019-02-05T18:14:12.634Z,7.73
2019-02-05T18:16:45.211Z,7.55
2019-02-05T18:19:11.376Z,7.25
2019-02-05T18:21:38.657Z,7.43
2019-02-05T18:24:05.402Z,7.37
2019-02-05T18:26:32.195Z,7.35
2019-02-05T18:28:58.960Z,7.33
2019-02-05T18:31:25.806Z,7.29
2019-02-05T18:33:54.128Z,7.16
2019-02-05T18:36:21.142Z,7.07
2019-02-05T18:38:47.882Z,7.01
2019-02-05T18:41:16.941Z,6.75
2019-02-05T18:43:43.774Z,6.67
2019-02-05T18:46:12.672Z,6.55
2019-02-05T18:48:39.495Z,6.45
2019-02-05T18:51:06.338Z,6.25
2019-02-05T18:53:35.286Z,6.22
2019-02-05T18:56:02.666Z,6.22
2019-02-05T18:58:30.011Z,6.11
2019-02-05T19:00:56.973Z,6.08
2019-02-05T19:03:24.757Z,6.06
2019-02-05T19:05:51.960Z,6.02
2019-02-05T19:08:18.862Z,5.86
2019-02-05T19:10:46.580Z,5.76
2019-02-05T19:13:13.426Z,5.71
2019-02-05T19:15:40.209Z,5.65
2019-02-05T19:18:07.631Z,5.65
2019-02-05T19:20:34.505Z,5.52
2019-02-05T19:23:01.700Z,5.52
2019-02-05T19:25:47.422Z,5.52
2019-02-05T19:28:20.723Z,5.65
2019-02-05T19:30:48.779Z,5.65
2019-02-05T19:33:26.468Z,5.62
2019-02-05T19:35:44.579Z,5.32
2019-02-05T19:38:13.557Z,5.26
2019-02-05T19:40:40.480Z,5.26
2019-02-05T19:43:07.360Z,4.99
2019-02-05T19:46:06.378Z,4.99
2019-02-05T19:48:38.324Z,4.93
2019-02-05T19:51:05.656Z,5.01
2019-02-05T19:53:32.480Z,5.13
2019-02-05T19:55:59.858Z,5.13
2019-02-05T19:58:26.737Z,5.01
2019-02-05T20:00:54.009Z,4.89
2019-02-05T20:03:22.148Z,4.89
2019-02-05T20:05:49.357Z,4.81
2019-02-05T20:08:16.374Z,4.50
2019-02-05T20:10:43.273Z,4.64
2019-02-05T20:13:10.997Z,4.34
2019-02-05T20:15:38.076Z,4.32
2019-02-05T20:18:04.817Z,4.25
2019-02-05T20:20:31.971Z,4.45
2019-02-05T20:22:58.838Z,4.42
2019-02-05T20:25:25.718Z,4.46
2019-02-05T20:27:52.596Z,4.49
2019-02-05T20:30:19.485Z,4.33
2019-02-05T20:32:49.078Z,4.26
2019-02-05T20:35:15.878Z,4.30
2019-02-05T20:37:43.044Z,4.20
2019-02-05T20:40:14.421Z,4.20
2019-02-05T20:42:42.814Z,4.20
2019-02-05T20:45:10.014Z,4.27
2019-02-05T20:47:37.066Z,4.23
2019-02-05T20:50:06.380Z,4.17
2019-02-05T20:52:34.322Z,4.13
2019-02-05T20:55:03.758Z,3.94
2019-02-05T20:57:30.925Z,3.78
2019-02-05T20:59:58.363Z,3.85
2019-02-05T21:02:25.291Z,3.77
2019-02-05T21:04:52.291Z,3.77
2019-02-05T21:07:19.472Z,3.78
2019-02-05T21:09:49.314Z,3.76
2019-02-05T21:12:16.340Z,3.76
2019-02-05T21:14:43.338Z,3.67
2019-02-05T21:17:10.706Z,3.65
2019-02-05T21:19:37.605Z,3.64
2019-02-05T21:22:04.774Z,3.67
2019-02-05T21:24:31.552Z,3.67
2019-02-05T21:26:58.435Z,3.58
2019-02-05T21:29:25.667Z,3.66
2019-02-05T21:31:52.849Z,3.62
2019-02-05T21:34:21.567Z,3.58
2019-02-05T21:36:48.918Z,3.53
2019-02-05T21:39:16.454Z,3.51
2019-02-05T21:41:43.190Z,3.55
2019-02-05T21:44:12.867Z,3.56
2019-02-05T21:46:39.616Z,3.61
2019-02-05T21:49:06.859Z,3.62
2019-02-05T21:51:40.501Z,3.66
2019-02-05T21:54:02.221Z,3.56
2019-02-05T21:56:29.552Z,3.54
2019-02-05T21:58:56.579Z,3.52
2019-02-05T22:01:23.381Z,3.48
2019-02-05T22:03:50.201Z,3.42
2019-02-05T22:06:17.105Z,3.40
2019-02-05T22:08:43.796Z,3.38
2019-02-05T22:11:10.661Z,3.34
2019-02-05T22:13:37.338Z,3.33
2019-02-05T22:16:04.222Z,3.37
2019-02-05T22:18:31.640Z,3.35
2019-02-05T22:20:58.559Z,3.03
2019-02-05T22:23:25.343Z,2.78
2019-02-05T22:25:52.316Z,2.72
2019-02-05T22:28:20.658Z,2.68
2019-02-05T22:30:47.828Z,2.73
2019-02-05T22:33:15.141Z,2.79
2019-02-05T22:35:41.883Z,2.81
2019-02-05T22:38:08.640Z,2.78
2019-02-05T22:40:35.470Z,2.74
2019-02-05T22:43:02.524Z,2.59
2019-02-05T22:45:29.629Z,2.49
2019-02-05T22:47:56.399Z,2.25
2019-02-05T22:50:24.687Z,2.34
2019-02-05T22:52:52.189Z,2.44
2019-02-05T22:55:18.965Z,2.62
2019-02-05T22:57:45.683Z,2.55
2019-02-05T23:00:47.630Z,2.52
2019-02-05T23:03:16.917Z,2.53
2019-02-05T23:06:29.107Z,2.48
2019-02-05T23:09:00.881Z,2.41
2019-02-05T23:11:52.113Z,2.35
2019-02-05T23:14:19.455Z,2.37
2019-02-05T23:16:46.217Z,2.30
2019-02-05T23:19:13.261Z,2.21
2019-02-05T23:21:40.359Z,2.09
2019-02-05T23:24:07.205Z,2.07
2019-02-05T23:26:34.092Z,2.12
2019-02-05T23:29:00.940Z,1.97
2019-02-05T23:31:30.673Z,2.03
2019-02-05T23:34:00.546Z,2.12
2019-02-05T23:36:29.090Z,2.19
2019-02-05T23:38:59.837Z,1.99
2019-02-05T23:41:26.613Z,1.88
2019-02-05T23:43:53.367Z,1.75
2019-02-05T23:46:20.643Z,1.78
2019-02-05T23:48:47.634Z,1.91
2019-02-05T23:51:14.497Z,2.00
2019-02-05T23:53:41.249Z,2.16
2019-02-05T23:56:10.308Z,2.15
2019-02-05T23:58:37.017Z,2.07
